createdAt,value
2018-05-08T00:00:01.088Z,99.99
2018-05-08T00:00:05.202Z,99.99
2018-05-08T00:00:09.369Z,99.99
2018-05-08T00:00:13.579Z,99.99
2018-05-08T00:00:17.901Z,99.99
2018-05-08T00:00:22.107Z,99.43
2018-05-08T00:00:26.310Z,99.71
2018-05-08T00:00:30.519Z,99.62
2018-05-08T00:00:34.730Z,99.81
2018-05-08T00:00:39.050Z,99.43
2018-05-08T00:00:43.053Z,99.52
2018-05-08T00:00:47.281Z,99.33
2018-05-08T00:00:51.625Z,99.43
2018-05-08T00:00:55.944Z,99.62
2018-05-08T00:01:00.152Z,99.62
2018-05-08T00:01:04.357Z,99.99
2018-05-08T00:01:08.568Z,99.24
2018-05-08T00:01:12.885Z,99.33
2018-05-08T00:01:17.201Z,99.33
2018-05-08T00:01:21.524Z,99.14
2018-05-08T00:01:25.843Z,99.24
2018-05-08T00:01:30.164Z,98.95
2018-05-08T00:01:34.488Z,98.95
2018-05-08T00:01:38.814Z,99.24
2018-05-08T00:01:42.920Z,98.95
2018-05-08T00:01:47.139Z,98.95
2018-05-08T00:01:51.353Z,99.52
2018-05-08T00:01:55.563Z,99.24
2018-05-08T00:01:59.880Z,99.14
2018-05-08T00:02:04.222Z,99.33
2018-05-08T00:02:08.335Z,99.52
2018-05-08T00:02:12.561Z,99.52
2018-05-08T00:02:16.780Z,99.14
2018-05-08T00:02:21.107Z,98.95
2018-05-08T00:02:25.317Z,98.85
2018-05-08T00:02:29.629Z,98.66
2018-05-08T00:02:33.839Z,98.57
2018-05-08T00:02:37.830Z,98.57
2018-05-08T00:02:42.143Z,98.85
2018-05-08T00:02:46.367Z,99.04
2018-05-08T00:02:50.583Z,98.75
2018-05-08T00:02:54.785Z,98.57
2018-05-08T00:02:59.099Z,98.57
2018-05-08T00:03:03.091Z,98.47
2018-05-08T00:03:07.412Z,98.57
2018-05-08T00:03:11.299Z,98.57
2018-05-08T00:03:15.396Z,98.47
2018-05-08T00:03:19.604Z,98.47
2018-05-08T00:03:23.712Z,98.38
2018-05-08T00:03:27.933Z,98.57
2018-05-08T00:03:32.141Z,97.8
2018-05-08T00:03:36.461Z,97.8
2018-05-08T00:03:40.569Z,98.09
2018-05-08T00:03:44.669Z,97.99
2018-05-08T00:03:48.880Z,98.18
2018-05-08T00:03:53.102Z,98.18
2018-05-08T00:03:57.315Z,98.28
2018-05-08T00:04:01.527Z,98.09
2018-05-08T00:04:05.748Z,98.09
2018-05-08T00:04:09.847Z,98.28
2018-05-08T00:04:14.057Z,97.9
2018-05-08T00:04:18.267Z,97.99
2018-05-08T00:04:22.496Z,97.9
2018-05-08T00:04:26.489Z,97.9
2018-05-08T00:04:30.697Z,97.99
2018-05-08T00:04:34.899Z,97.8
2018-05-08T00:04:39.112Z,98.09
2018-05-08T00:04:43.113Z,98.09
2018-05-08T00:04:47.321Z,98.18
2018-05-08T00:04:51.423Z,98.38
2018-05-08T00:04:55.628Z,98.38
2018-05-08T00:04:59.839Z,98.18
2018-05-08T00:05:04.105Z,98.38
2018-05-08T00:05:08.096Z,98.18
2018-05-08T00:05:12.319Z,98.38
2018-05-08T00:05:16.645Z,98.47
2018-05-08T00:05:20.962Z,97.9
2018-05-08T00:05:25.061Z,97.99
2018-05-08T00:05:29.382Z,97.9
2018-05-08T00:05:33.602Z,97.99
2018-05-08T00:05:37.808Z,97.9
2018-05-08T00:05:42.125Z,97.8
2018-05-08T00:05:46.242Z,98.28
2018-05-08T00:05:50.455Z,98.18
2018-05-08T00:05:54.781Z,97.42
2018-05-08T00:05:59.103Z,97.52
2018-05-08T00:06:03.472Z,97.99
2018-05-08T00:06:07.571Z,97.33
2018-05-08T00:06:11.673Z,97.33
2018-05-08T00:06:15.994Z,97.33
2018-05-08T00:06:20.207Z,97.71
2018-05-08T00:06:24.432Z,97.99
2018-05-08T00:06:28.758Z,97.52
2018-05-08T00:06:32.977Z,97.71
2018-05-08T00:06:37.182Z,97.71
2018-05-08T00:06:41.501Z,97.13
2018-05-08T00:06:45.732Z,97.33
2018-05-08T00:06:49.943Z,97.33
2018-05-08T00:06:54.152Z,97.33
2018-05-08T00:06:58.359Z,97.33
2018-05-08T00:07:02.530Z,97.42
2018-05-08T00:07:06.629Z,97.42
2018-05-08T00:07:10.739Z,97.13
2018-05-08T00:07:14.838Z,97.42
2018-05-08T00:07:19.053Z,97.33
2018-05-08T00:07:23.158Z,97.23
2018-05-08T00:07:27.367Z,97.23
2018-05-08T00:07:31.692Z,97.04
2018-05-08T00:07:35.904Z,97.04
2018-05-08T00:07:40.112Z,97.42
2018-05-08T00:07:44.322Z,97.13
2018-05-08T00:07:48.430Z,97.23
2018-05-08T00:07:52.743Z,97.42
2018-05-08T00:07:56.845Z,97.13
2018-05-08T00:08:01.161Z,97.52
2018-05-08T00:08:05.479Z,97.71
2018-05-08T00:08:09.603Z,97.42
2018-05-08T00:08:13.706Z,97.71
2018-05-08T00:08:18.025Z,97.52
2018-05-08T00:08:22.237Z,97.8
2018-05-08T00:08:26.553Z,97.71
2018-05-08T00:08:30.756Z,97.71
2018-05-08T00:08:34.854Z,97.8
2018-05-08T00:08:39.063Z,97.61
2018-05-08T00:08:43.053Z,97.8
2018-05-08T00:08:47.121Z,97.61
2018-05-08T00:08:51.959Z,97.8
2018-05-08T00:08:56.391Z,97.61
2018-05-08T00:09:01.185Z,97.61
2018-05-08T00:09:05.293Z,97.8
2018-05-08T00:09:09.285Z,97.71
2018-05-08T00:09:13.500Z,97.9
2018-05-08T00:09:17.603Z,97.61
2018-05-08T00:09:21.824Z,97.8
2018-05-08T00:09:25.925Z,97.71
2018-05-08T00:09:30.031Z,97.52
2018-05-08T00:09:34.142Z,97.71
2018-05-08T00:09:38.251Z,97.71
2018-05-08T00:09:42.458Z,97.71
2018-05-08T00:09:46.668Z,97.71
2018-05-08T00:09:50.660Z,97.52
2018-05-08T00:09:54.865Z,97.71
2018-05-08T00:09:59.182Z,97.99
2018-05-08T00:10:03.416Z,97.9
2018-05-08T00:10:07.628Z,97.42
2018-05-08T00:10:11.839Z,97.42
2018-05-08T00:10:16.059Z,97.52
2018-05-08T00:10:20.267Z,97.61
2018-05-08T00:10:24.485Z,97.71
2018-05-08T00:10:28.695Z,97.71
2018-05-08T00:10:32.795Z,97.71
2018-05-08T00:10:37.010Z,97.8
2018-05-08T00:10:41.328Z,97.71
2018-05-08T00:10:45.211Z,97.71
2018-05-08T00:10:49.316Z,97.52
2018-05-08T00:10:53.632Z,97.52
2018-05-08T00:10:57.957Z,97.42
2018-05-08T00:11:01.949Z,97.33
2018-05-08T00:11:06.168Z,97.42
2018-05-08T00:11:10.387Z,97.33
2018-05-08T00:11:14.271Z,97.61
2018-05-08T00:11:18.380Z,97.61
2018-05-08T00:11:22.722Z,97.42
2018-05-08T00:11:26.933Z,97.33
2018-05-08T00:11:31.139Z,97.42
2018-05-08T00:11:35.525Z,97.33
2018-05-08T00:11:39.736Z,97.52
2018-05-08T00:11:43.944Z,97.9
2018-05-08T00:11:48.053Z,97.52
2018-05-08T00:11:52.275Z,97.52
2018-05-08T00:11:56.596Z,97.61
2018-05-08T00:12:00.911Z,97.42
2018-05-08T00:12:05.233Z,97.61
2018-05-08T00:12:09.448Z,98.18
2018-05-08T00:12:13.774Z,97.8
2018-05-08T00:12:17.780Z,97.9
2018-05-08T00:12:22.097Z,97.9
2018-05-08T00:12:26.305Z,97.99
2018-05-08T00:12:30.628Z,97.99
2018-05-08T00:12:34.962Z,97.9
2018-05-08T00:12:39.167Z,97.9
2018-05-08T00:12:43.498Z,97.71
2018-05-08T00:12:47.609Z,98.09
2018-05-08T00:12:51.930Z,97.99
2018-05-08T00:12:56.241Z,97.9
2018-05-08T00:13:00.236Z,97.8
2018-05-08T00:13:04.371Z,98.38
2018-05-08T00:13:08.368Z,98.28
2018-05-08T00:13:12.577Z,98.57
2018-05-08T00:13:16.682Z,98.28
2018-05-08T00:13:21.011Z,98.85
2018-05-08T00:13:25.331Z,98.66
2018-05-08T00:13:29.433Z,98.66
2018-05-08T00:13:33.638Z,98.85
2018-05-08T00:13:37.957Z,99.04
2018-05-08T00:13:42.278Z,98.66
2018-05-08T00:13:46.483Z,98.95
2018-05-08T00:13:50.582Z,98.95
2018-05-08T00:13:54.896Z,98.95
2018-05-08T00:13:58.995Z,98.95
2018-05-08T00:14:03.357Z,99.04
2018-05-08T00:14:07.463Z,98.85
2018-05-08T00:14:11.777Z,98.66
2018-05-08T00:14:15.894Z,98.95
2018-05-08T00:14:20.213Z,98.75
2018-05-08T00:14:24.527Z,98.85
2018-05-08T00:14:28.857Z,98.95
2018-05-08T00:14:33.167Z,98.95
2018-05-08T00:14:37.383Z,98.57
2018-05-08T00:14:41.592Z,99.04
2018-05-08T00:14:45.925Z,98.85
2018-05-08T00:14:50.242Z,98.85
2018-05-08T00:14:54.458Z,98.85
2018-05-08T00:14:58.802Z,98.95
2018-05-08T00:15:03.118Z,98.95
2018-05-08T00:15:07.337Z,98.85
2018-05-08T00:15:11.545Z,98.95
2018-05-08T00:15:15.876Z,98.95
2018-05-08T00:15:19.874Z,98.85
2018-05-08T00:15:24.087Z,98.66
2018-05-08T00:15:28.186Z,98.66
2018-05-08T00:15:32.503Z,98.95
2018-05-08T00:15:36.712Z,98.75
2018-05-08T00:15:41.033Z,98.85
2018-05-08T00:15:45.245Z,99.04
2018-05-08T00:15:49.466Z,99.04
2018-05-08T00:15:53.784Z,98.57
2018-05-08T00:15:58.008Z,98.57
2018-05-08T00:16:02.289Z,98.28
2018-05-08T00:16:06.391Z,99.14
2018-05-08T00:16:10.500Z,99.04
2018-05-08T00:16:14.714Z,98.85
2018-05-08T00:16:19.037Z,98.85
2018-05-08T00:16:23.260Z,98.66
2018-05-08T00:16:27.476Z,98.85
2018-05-08T00:16:31.364Z,98.85
2018-05-08T00:16:35.580Z,98.85
2018-05-08T00:16:39.797Z,99.04
2018-05-08T00:16:43.974Z,98.95
2018-05-08T00:16:48.289Z,99.04
2018-05-08T00:16:52.404Z,99.43
2018-05-08T00:16:56.510Z,99.71
2018-05-08T00:17:00.827Z,98.85
2018-05-08T00:17:04.934Z,99.43
2018-05-08T00:17:09.252Z,99.14
2018-05-08T00:17:13.460Z,99.14
2018-05-08T00:17:17.777Z,99.04
2018-05-08T00:17:22.097Z,99.14
2018-05-08T00:17:26.408Z,99.43
2018-05-08T00:17:30.736Z,98.95
2018-05-08T00:17:34.946Z,99.43
2018-05-08T00:17:39.288Z,99.14
2018-05-08T00:17:43.568Z,99.43
2018-05-08T00:17:47.883Z,99.24
2018-05-08T00:17:51.876Z,99.43
2018-05-08T00:17:56.192Z,99.43
2018-05-08T00:18:00.300Z,99.43
2018-05-08T00:18:04.626Z,99.04
2018-05-08T00:18:08.767Z,99.43
2018-05-08T00:18:12.865Z,99.14
2018-05-08T00:18:16.961Z,99.43
2018-05-08T00:18:21.324Z,99.62
2018-05-08T00:18:25.639Z,99.43
2018-05-08T00:18:29.843Z,99.33
2018-05-08T00:18:34.050Z,99.14
2018-05-08T00:18:38.259Z,99.04
2018-05-08T00:18:42.461Z,99.14
2018-05-08T00:18:46.567Z,98.75
2018-05-08T00:18:50.781Z,98.66
2018-05-08T00:18:55.103Z,98.75
2018-05-08T00:18:59.428Z,98.75
2018-05-08T00:19:03.427Z,99.14
2018-05-08T00:19:07.533Z,98.95
2018-05-08T00:19:11.765Z,98.95
2018-05-08T00:19:15.867Z,98.85
2018-05-08T00:19:20.181Z,98.85
2018-05-08T00:19:24.399Z,98.85
2018-05-08T00:19:28.733Z,98.85
2018-05-08T00:19:32.832Z,98.85
2018-05-08T00:19:37.165Z,99.04
2018-05-08T00:19:41.375Z,98.85
2018-05-08T00:19:45.480Z,98.28
2018-05-08T00:19:49.690Z,98.57
2018-05-08T00:19:53.903Z,98.66
2018-05-08T00:19:58.217Z,98.66
2018-05-08T00:20:02.404Z,98.38
2018-05-08T00:20:06.404Z,98.47
2018-05-08T00:20:10.514Z,98.38
2018-05-08T00:20:14.613Z,98.57
2018-05-08T00:20:18.829Z,98.38
2018-05-08T00:20:23.036Z,98.38
2018-05-08T00:20:27.146Z,98.47
2018-05-08T00:20:31.472Z,98.18
2018-05-08T00:20:35.688Z,98.57
2018-05-08T00:20:40.015Z,98.57
2018-05-08T00:20:44.355Z,98.38
2018-05-08T00:20:48.459Z,98.38
2018-05-08T00:20:52.769Z,98.38
2018-05-08T00:20:56.983Z,98.47
2018-05-08T00:21:00.975Z,98.57
2018-05-08T00:21:05.298Z,98.85
2018-05-08T00:21:09.517Z,98.95
2018-05-08T00:21:13.729Z,98.28
2018-05-08T00:21:18.044Z,99.24
2018-05-08T00:21:22.255Z,98.75
2018-05-08T00:21:26.470Z,98.85
2018-05-08T00:21:30.785Z,98.85
2018-05-08T00:21:34.990Z,98.85
2018-05-08T00:21:39.309Z,98.52
2018-05-08T00:21:43.521Z,98.57
2018-05-08T00:21:47.839Z,98.33
2018-05-08T00:21:51.925Z,98.66
2018-05-08T00:21:56.026Z,98.52
2018-05-08T00:22:00.233Z,98.38
2018-05-08T00:22:04.338Z,98.42
2018-05-08T00:22:08.654Z,98.52
2018-05-08T00:22:12.860Z,98.57
2018-05-08T00:22:16.745Z,98.57
2018-05-08T00:22:21.059Z,98.47
2018-05-08T00:22:25.155Z,98.42
2018-05-08T00:22:29.549Z,98.47
2018-05-08T00:22:33.660Z,98.33
2018-05-08T00:22:37.975Z,98.57
2018-05-08T00:22:42.179Z,98.57
2018-05-08T00:22:46.399Z,98.42
2018-05-08T00:22:50.716Z,98.8
2018-05-08T00:22:54.922Z,98.47
2018-05-08T00:22:59.138Z,98.71
2018-05-08T00:23:03.425Z,98.71
2018-05-08T00:23:07.435Z,98.04
2018-05-08T00:23:11.764Z,97.8
2018-05-08T00:23:15.880Z,98.71
2018-05-08T00:23:19.872Z,98.47
2018-05-08T00:23:24.202Z,98.57
2018-05-08T00:23:28.414Z,98.18
2018-05-08T00:23:32.642Z,98.57
2018-05-08T00:23:36.849Z,98.47
2018-05-08T00:23:41.168Z,98.57
2018-05-08T00:23:45.267Z,99.04
2018-05-08T00:23:49.156Z,98.85
2018-05-08T00:23:53.474Z,98.95
2018-05-08T00:23:57.679Z,98.61
2018-05-08T00:24:01.937Z,98.66
2018-05-08T00:24:06.038Z,98.61
2018-05-08T00:24:10.250Z,98.66
2018-05-08T00:24:14.463Z,98.95
2018-05-08T00:24:18.679Z,98.75
2018-05-08T00:24:22.884Z,98.8
2018-05-08T00:24:26.882Z,99.14
2018-05-08T00:24:31.197Z,98.95
2018-05-08T00:24:35.509Z,98.95
2018-05-08T00:24:39.791Z,98.52
2018-05-08T00:24:43.895Z,98.33
2018-05-08T00:24:48.099Z,98.38
2018-05-08T00:24:52.304Z,98.38
2018-05-08T00:24:56.406Z,98.38
2018-05-08T00:25:00.625Z,98.38
2018-05-08T00:25:04.735Z,98.42
2018-05-08T00:25:08.848Z,98.23
2018-05-08T00:25:13.166Z,98.52
2018-05-08T00:25:17.485Z,98.57
2018-05-08T00:25:21.585Z,98.75
2018-05-08T00:25:25.681Z,98.75
2018-05-08T00:25:29.883Z,98.38
2018-05-08T00:25:33.882Z,98.09
2018-05-08T00:25:38.088Z,97.8
2018-05-08T00:25:42.314Z,98.28
2018-05-08T00:25:46.202Z,98.09
2018-05-08T00:25:50.520Z,98.04
2018-05-08T00:25:54.735Z,98.18
2018-05-08T00:25:58.950Z,98.38
2018-05-08T00:26:03.051Z,98.33
2018-05-08T00:26:07.269Z,98.18
2018-05-08T00:26:11.490Z,98.33
2018-05-08T00:26:15.478Z,98.38
2018-05-08T00:26:19.793Z,98.18
2018-05-08T00:26:24.112Z,98.18
2018-05-08T00:26:28.424Z,98.33
2018-05-08T00:26:32.631Z,98.13
2018-05-08T00:26:36.846Z,98.71
2018-05-08T00:26:41.064Z,98.42
2018-05-08T00:26:45.166Z,98.71
2018-05-08T00:26:49.373Z,98.57
2018-05-08T00:26:53.673Z,98.95
2018-05-08T00:26:57.893Z,98.9
2018-05-08T00:27:02.000Z,99.09
2018-05-08T00:27:06.147Z,98.66
2018-05-08T00:27:10.364Z,98.66
2018-05-08T00:27:14.680Z,99.43
2018-05-08T00:27:18.681Z,99.33
2018-05-08T00:27:22.999Z,99.38
2018-05-08T00:27:27.095Z,99.99
2018-05-08T00:27:31.284Z,99.43
2018-05-08T00:27:35.607Z,99.57
2018-05-08T00:27:39.812Z,99.04
2018-05-08T00:27:44.123Z,98.95
2018-05-08T00:27:48.225Z,98.9
2018-05-08T00:27:52.555Z,99.38
2018-05-08T00:27:56.877Z,99.38
2018-05-08T00:28:01.084Z,99.71
2018-05-08T00:28:05.281Z,98.71
2018-05-08T00:28:09.478Z,99.81
2018-05-08T00:28:13.582Z,99.66
2018-05-08T00:28:17.911Z,99.71
2018-05-08T00:28:22.236Z,99.38
2018-05-08T00:28:26.439Z,99.57
2018-05-08T00:28:30.758Z,99.38
2018-05-08T00:28:34.967Z,99.57
2018-05-08T00:28:39.182Z,99.99
2018-05-08T00:28:43.397Z,98.99
2018-05-08T00:28:47.610Z,98.99
2018-05-08T00:28:51.824Z,99.28
2018-05-08T00:28:55.922Z,99.38
2018-05-08T00:29:00.030Z,99.19
2018-05-08T00:29:04.251Z,99.09
2018-05-08T00:29:08.356Z,99.28
2018-05-08T00:29:12.574Z,99.09
2018-05-08T00:29:16.566Z,99.48
2018-05-08T00:29:20.782Z,99.66
2018-05-08T00:29:25.104Z,99.48
2018-05-08T00:29:29.201Z,99.19
2018-05-08T00:29:33.191Z,99.33
2018-05-08T00:29:37.296Z,98.9
2018-05-08T00:29:41.515Z,98.9
2018-05-08T00:29:45.620Z,99.19
2018-05-08T00:29:49.939Z,98.61
2018-05-08T00:29:54.197Z,98.61
2018-05-08T00:29:58.406Z,98.52
2018-05-08T00:30:02.507Z,98.8
2018-05-08T00:30:06.618Z,98.8
2018-05-08T00:30:10.954Z,98.9
2018-05-08T00:30:15.286Z,98.52
2018-05-08T00:30:19.613Z,98.9
2018-05-08T00:30:23.931Z,98.9
2018-05-08T00:30:28.260Z,98.8
2018-05-08T00:30:32.470Z,98.71
2018-05-08T00:30:36.685Z,99.19
2018-05-08T00:30:41.002Z,98.9
2018-05-08T00:30:45.312Z,99.28
2018-05-08T00:30:49.409Z,99.28
2018-05-08T00:30:53.401Z,99.38
2018-05-08T00:30:57.721Z,99.76
2018-05-08T00:31:01.948Z,98.99
2018-05-08T00:31:06.058Z,99.85
2018-05-08T00:31:10.273Z,99.76
2018-05-08T00:31:14.655Z,99.38
2018-05-08T00:31:18.757Z,99.76
2018-05-08T00:31:22.964Z,99.38
2018-05-08T00:31:27.058Z,99.66
2018-05-08T00:31:31.158Z,98.8
2018-05-08T00:31:35.374Z,99.09
2018-05-08T00:31:39.587Z,98.99
2018-05-08T00:31:43.798Z,99.48
2018-05-08T00:31:48.114Z,99.28
2018-05-08T00:31:52.431Z,99.28
2018-05-08T00:31:56.640Z,98.9
2018-05-08T00:32:00.968Z,99.76
2018-05-08T00:32:05.281Z,99.57
2018-05-08T00:32:09.269Z,99.57
2018-05-08T00:32:13.483Z,99.76
2018-05-08T00:32:17.476Z,99.57
2018-05-08T00:32:21.848Z,99.38
2018-05-08T00:32:26.062Z,99.66
2018-05-08T00:32:30.373Z,99.66
2018-05-08T00:32:34.587Z,99.38
2018-05-08T00:32:38.904Z,99.71
2018-05-08T00:32:43.001Z,99.57
2018-05-08T00:32:47.107Z,99.38
2018-05-08T00:32:51.317Z,99.99
2018-05-08T00:32:55.638Z,99.66
2018-05-08T00:32:59.843Z,99.95
2018-05-08T00:33:04.000Z,99.99
2018-05-08T00:33:08.209Z,99.99
2018-05-08T00:33:12.309Z,99.99
2018-05-08T00:33:16.624Z,99.99
2018-05-08T00:33:20.933Z,99.99
2018-05-08T00:33:25.244Z,99.99
2018-05-08T00:33:29.246Z,99.99
2018-05-08T00:33:33.561Z,99.99
2018-05-08T00:33:37.842Z,99.95
2018-05-08T00:33:42.158Z,99.99
2018-05-08T00:33:46.165Z,99.95
2018-05-08T00:33:50.486Z,99.85
2018-05-08T00:33:54.799Z,99.85
2018-05-08T00:33:59.010Z,99.99
2018-05-08T00:34:03.230Z,99.9
2018-05-08T00:34:07.342Z,99.66
2018-05-08T00:34:11.649Z,99.76
2018-05-08T00:34:15.855Z,99.76
2018-05-08T00:34:20.181Z,99.85
2018-05-08T00:34:24.542Z,99.76
2018-05-08T00:34:28.756Z,99.38
2018-05-08T00:34:32.972Z,99.57
2018-05-08T00:34:37.070Z,99.38
2018-05-08T00:34:41.281Z,99.85
2018-05-08T00:34:45.383Z,99.38
2018-05-08T00:34:49.608Z,99.38
2018-05-08T00:34:53.928Z,99.38
2018-05-08T00:34:58.033Z,99.38
2018-05-08T00:35:02.257Z,99.28
2018-05-08T00:35:06.569Z,99.28
2018-05-08T00:35:10.783Z,99.85
2018-05-08T00:35:14.987Z,99.57
2018-05-08T00:35:19.200Z,99.38
2018-05-08T00:35:23.510Z,99.48
2018-05-08T00:35:27.720Z,99.85
2018-05-08T00:35:31.818Z,99.38
2018-05-08T00:35:36.128Z,99.09
2018-05-08T00:35:40.423Z,99.19
2018-05-08T00:35:44.754Z,99.95
2018-05-08T00:35:48.965Z,99.95
2018-05-08T00:35:53.260Z,99.99
2018-05-08T00:35:57.593Z,99.66
2018-05-08T00:36:01.802Z,99.95
2018-05-08T00:36:06.125Z,99.85
2018-05-08T00:36:10.336Z,99.57
2018-05-08T00:36:14.549Z,99.85
2018-05-08T00:36:18.754Z,99.66
2018-05-08T00:36:23.071Z,99.95
2018-05-08T00:36:27.276Z,99.66
2018-05-08T00:36:31.483Z,99.99
2018-05-08T00:36:35.806Z,99.99
2018-05-08T00:36:40.123Z,99.57
2018-05-08T00:36:44.336Z,99.99
2018-05-08T00:36:48.441Z,99.85
2018-05-08T00:36:52.654Z,99.95
2018-05-08T00:36:56.757Z,99.28
2018-05-08T00:37:01.073Z,99.76
2018-05-08T00:37:05.174Z,99.85
2018-05-08T00:37:09.382Z,99.99
2018-05-08T00:37:13.708Z,99.95
2018-05-08T00:37:18.024Z,99.99
2018-05-08T00:37:22.013Z,98.9
2018-05-08T00:37:26.353Z,99.57
2018-05-08T00:37:30.575Z,98.9
2018-05-08T00:37:34.895Z,99.57
2018-05-08T00:37:39.213Z,99.76
2018-05-08T00:37:43.327Z,99.66
2018-05-08T00:37:47.537Z,99.99
2018-05-08T00:37:51.864Z,99.76
2018-05-08T00:37:56.181Z,99.95
2018-05-08T00:38:00.391Z,99.85
2018-05-08T00:38:04.705Z,99.76
2018-05-08T00:38:08.911Z,99.76
2018-05-08T00:38:13.011Z,99.76
2018-05-08T00:38:17.336Z,99.99
2018-05-08T00:38:21.435Z,99.99
2018-05-08T00:38:25.644Z,99.99
2018-05-08T00:38:29.998Z,99.99
2018-05-08T00:38:34.217Z,99.99
2018-05-08T00:38:38.433Z,99.99
2018-05-08T00:38:42.746Z,99.99
2018-05-08T00:38:46.959Z,99.99
2018-05-08T00:38:51.163Z,99.99
2018-05-08T00:38:55.378Z,99.99
2018-05-08T00:38:59.690Z,99.99
2018-05-08T00:39:03.683Z,99.99
2018-05-08T00:39:07.888Z,99.99
2018-05-08T00:39:12.204Z,99.99
2018-05-08T00:39:16.544Z,99.99
2018-05-08T00:39:20.874Z,99.99
2018-05-08T00:39:25.091Z,99.99
2018-05-08T00:39:29.417Z,99.99
2018-05-08T00:39:33.734Z,99.99
2018-05-08T00:39:37.726Z,99.99
2018-05-08T00:39:41.936Z,99.99
2018-05-08T00:39:46.261Z,99.99
2018-05-08T00:39:50.576Z,99.99
2018-05-08T00:39:54.678Z,99.99
2018-05-08T00:39:58.994Z,99.99
2018-05-08T00:40:03.412Z,99.99
2018-05-08T00:40:07.625Z,99.99
2018-05-08T00:40:11.845Z,99.99
2018-05-08T00:40:15.948Z,99.99
2018-05-08T00:40:20.264Z,99.99
2018-05-08T00:40:24.662Z,99.99
2018-05-08T00:40:28.976Z,99.99
2018-05-08T00:40:33.083Z,99.99
2018-05-08T00:40:37.399Z,99.99
2018-05-08T00:40:41.614Z,99.99
2018-05-08T00:40:45.715Z,99.99
2018-05-08T00:40:49.923Z,99.99
2018-05-08T00:40:54.262Z,99.99
2018-05-08T00:40:58.488Z,99.99
2018-05-08T00:41:02.598Z,99.99
2018-05-08T00:41:06.387Z,99.99
2018-05-08T00:41:10.599Z,99.99
2018-05-08T00:41:14.807Z,99.99
2018-05-08T00:41:19.122Z,99.99
2018-05-08T00:41:23.334Z,99.99
2018-05-08T00:41:27.564Z,99.99
2018-05-08T00:41:31.342Z,99.99
2018-05-08T00:41:35.547Z,99.99
2018-05-08T00:41:39.866Z,99.99
2018-05-08T00:41:44.083Z,99.99
2018-05-08T00:41:48.290Z,99.99
2018-05-08T00:41:52.417Z,99.99
2018-05-08T00:41:56.638Z,99.99
2018-05-08T00:42:00.960Z,99.99
2018-05-08T00:42:05.386Z,99.99
2018-05-08T00:42:09.600Z,99.99
2018-05-08T00:42:13.812Z,99.99
2018-05-08T00:42:18.020Z,99.99
2018-05-08T00:42:22.331Z,99.99
2018-05-08T00:42:26.432Z,99.99
2018-05-08T00:42:30.530Z,99.99
2018-05-08T00:42:34.840Z,99.99
2018-05-08T00:42:39.157Z,99.99
2018-05-08T00:42:43.483Z,99.99
2018-05-08T00:42:47.701Z,99.99
2018-05-08T00:42:51.909Z,99.99
2018-05-08T00:42:56.229Z,99.99
2018-05-08T00:43:00.559Z,99.99
2018-05-08T00:43:04.659Z,99.99
2018-05-08T00:43:08.764Z,99.99
2018-05-08T00:43:12.866Z,99.99
2018-05-08T00:43:16.995Z,99.99
2018-05-08T00:43:21.318Z,99.99
2018-05-08T00:43:25.646Z,99.99
2018-05-08T00:43:29.957Z,99.99
2018-05-08T00:43:34.273Z,99.99
2018-05-08T00:43:38.596Z,99.99
2018-05-08T00:43:42.713Z,99.99
2018-05-08T00:43:46.813Z,99.99
2018-05-08T00:43:51.019Z,99.99
2018-05-08T00:43:55.224Z,99.99
2018-05-08T00:43:59.430Z,99.99
2018-05-08T00:44:03.529Z,99.99
2018-05-08T00:44:07.739Z,99.99
2018-05-08T00:44:11.845Z,99.99
2018-05-08T00:44:15.955Z,99.99
2018-05-08T00:44:20.159Z,99.99
2018-05-08T00:44:24.365Z,99.99
2018-05-08T00:44:28.363Z,99.99
2018-05-08T00:44:32.571Z,99.99
2018-05-08T00:44:36.568Z,99.99
2018-05-08T00:44:40.897Z,99.99
2018-05-08T00:44:45.111Z,99.99
2018-05-08T00:44:49.326Z,99.99
2018-05-08T00:44:53.549Z,99.99
2018-05-08T00:44:57.647Z,99.99
2018-05-08T00:45:01.857Z,99.99
2018-05-08T00:45:05.962Z,99.99
2018-05-08T00:45:10.282Z,99.99
2018-05-08T00:45:14.385Z,99.99
2018-05-08T00:45:18.604Z,99.99
2018-05-08T00:45:22.808Z,99.99
2018-05-08T00:45:27.018Z,99.99
2018-05-08T00:45:31.123Z,99.99
2018-05-08T00:45:35.333Z,99.99
2018-05-08T00:45:39.548Z,99.99
2018-05-08T00:45:43.861Z,99.99
2018-05-08T00:45:48.077Z,99.99
2018-05-08T00:45:52.294Z,99.99
2018-05-08T00:45:56.519Z,99.99
2018-05-08T00:46:00.623Z,99.99
2018-05-08T00:46:04.742Z,99.99
2018-05-08T00:46:08.847Z,99.99
2018-05-08T00:46:12.947Z,99.99
2018-05-08T00:46:17.266Z,99.99
2018-05-08T00:46:21.469Z,99.99
2018-05-08T00:46:25.570Z,99.99
2018-05-08T00:46:29.774Z,99.99
2018-05-08T00:46:33.985Z,99.99
2018-05-08T00:46:38.302Z,99.99
2018-05-08T00:46:42.612Z,99.99
2018-05-08T00:46:46.829Z,99.99
2018-05-08T00:46:51.049Z,99.99
2018-05-08T00:46:55.365Z,99.99
2018-05-08T00:46:59.688Z,99.99
2018-05-08T00:47:03.895Z,99.99
2018-05-08T00:47:08.104Z,99.99
2018-05-08T00:47:12.315Z,99.99
2018-05-08T00:47:16.523Z,99.99
2018-05-08T00:47:20.621Z,99.99
2018-05-08T00:47:24.842Z,99.99
2018-05-08T00:47:29.045Z,99.99
2018-05-08T00:47:33.370Z,99.99
2018-05-08T00:47:37.471Z,99.99
2018-05-08T00:47:41.745Z,99.99
2018-05-08T00:47:45.948Z,99.99
2018-05-08T00:47:50.267Z,99.99
2018-05-08T00:47:54.631Z,99.99
2018-05-08T00:47:58.844Z,99.99
2018-05-08T00:48:02.937Z,99.99
2018-05-08T00:48:07.040Z,99.99
2018-05-08T00:48:11.044Z,99.99
2018-05-08T00:48:15.142Z,99.99
2018-05-08T00:48:19.241Z,99.99
2018-05-08T00:48:23.341Z,99.99
2018-05-08T00:48:27.445Z,99.99
2018-05-08T00:48:31.767Z,99.99
2018-05-08T00:48:36.044Z,99.99
2018-05-08T00:48:40.355Z,99.99
2018-05-08T00:48:44.667Z,99.99
2018-05-08T00:48:48.992Z,99.99
2018-05-08T00:48:53.198Z,99.99
2018-05-08T00:48:57.401Z,99.99
2018-05-08T00:49:01.718Z,99.99
2018-05-08T00:49:05.814Z,99.99
2018-05-08T00:49:09.921Z,99.99
2018-05-08T00:49:14.127Z,99.99
2018-05-08T00:49:18.341Z,99.99
2018-05-08T00:49:22.441Z,99.99
2018-05-08T00:49:26.322Z,99.99
2018-05-08T00:49:30.425Z,99.99
2018-05-08T00:49:34.747Z,99.99
2018-05-08T00:49:38.854Z,99.99
2018-05-08T00:49:43.063Z,99.99
2018-05-08T00:49:47.053Z,99.99
2018-05-08T00:49:51.264Z,99.99
2018-05-08T00:49:55.576Z,99.99
2018-05-08T00:49:59.784Z,99.99
2018-05-08T00:50:04.005Z,99.99
2018-05-08T00:50:08.214Z,99.99
2018-05-08T00:50:12.549Z,99.99
2018-05-08T00:50:16.770Z,99.99
2018-05-08T00:50:20.764Z,99.99
2018-05-08T00:50:24.756Z,99.99
2018-05-08T00:50:28.962Z,99.99
2018-05-08T00:50:33.165Z,99.99
2018-05-08T00:50:37.374Z,99.99
2018-05-08T00:50:41.591Z,99.99
2018-05-08T00:50:45.801Z,99.99
2018-05-08T00:50:49.909Z,99.99
2018-05-08T00:50:54.116Z,99.99
2018-05-08T00:50:58.322Z,99.99
2018-05-08T00:51:02.662Z,99.99
2018-05-08T00:51:06.767Z,99.99
2018-05-08T00:51:11.123Z,99.99
2018-05-08T00:51:15.222Z,99.99
2018-05-08T00:51:19.421Z,99.99
2018-05-08T00:51:23.630Z,99.99
2018-05-08T00:51:27.839Z,99.99
2018-05-08T00:51:31.833Z,99.99
2018-05-08T00:51:36.049Z,99.99
2018-05-08T00:51:40.365Z,99.99
2018-05-08T00:51:44.467Z,99.99
2018-05-08T00:51:48.790Z,99.99
2018-05-08T00:51:53.107Z,99.99
2018-05-08T00:51:57.422Z,99.99
2018-05-08T00:52:01.734Z,99.99
2018-05-08T00:52:05.784Z,99.99
2018-05-08T00:52:09.994Z,99.99
2018-05-08T00:52:14.308Z,99.99
2018-05-08T00:52:18.628Z,99.99
2018-05-08T00:52:22.835Z,99.99
2018-05-08T00:52:27.149Z,99.99
2018-05-08T00:52:31.360Z,99.99
2018-05-08T00:52:35.469Z,99.99
2018-05-08T00:52:39.785Z,99.99
2018-05-08T00:52:44.108Z,99.99
2018-05-08T00:52:48.424Z,99.99
2018-05-08T00:52:52.632Z,99.99
2018-05-08T00:52:56.835Z,99.99
2018-05-08T00:53:00.934Z,99.99
2018-05-08T00:53:04.939Z,99.99
2018-05-08T00:53:09.044Z,99.99
2018-05-08T00:53:13.361Z,99.99
2018-05-08T00:53:17.578Z,99.99
2018-05-08T00:53:21.893Z,99.99
2018-05-08T00:53:26.102Z,99.99
2018-05-08T00:53:30.369Z,99.99
2018-05-08T00:53:34.677Z,99.99
2018-05-08T00:53:38.886Z,99.99
2018-05-08T00:53:43.165Z,99.99
2018-05-08T00:53:47.379Z,99.99
2018-05-08T00:53:51.485Z,99.99
2018-05-08T00:53:55.583Z,99.99
2018-05-08T00:53:59.910Z,99.99
2018-05-08T00:54:04.122Z,99.99
2018-05-08T00:54:08.327Z,99.99
2018-05-08T00:54:12.533Z,99.99
2018-05-08T00:54:16.547Z,99.99
2018-05-08T00:54:20.650Z,99.99